createdAt,value
2023-02-03T00:01:23.088Z,2.90
2023-02-03T00:03:49.774Z,2.80
2023-02-03T00:06:16.501Z,2.50
2023-02-03T00:08:43.147Z,4.30
2023-02-03T00:11:09.776Z,4.90
2023-02-03T00:13:36.483Z,5.10
2023-02-03T00:16:03.126Z,2.80
2023-02-03T00:18:29.789Z,3.80
2023-02-03T00:20:56.391Z,4.00
2023-02-03T00:23:23.042Z,3.30
2023-02-03T00:25:49.733Z,3.40
2023-02-03T00:28:16.387Z,2.90
2023-02-03T00:33:10.434Z,1.80
2023-02-03T00:35:40.379Z,3.30
2023-02-03T00:38:07.115Z,3.30
2023-02-03T00:40:33.739Z,2.20
2023-02-03T00:43:01.618Z,5.40
2023-02-03T00:45:29.280Z,3.20
2023-02-03T00:47:56.420Z,2.60
2023-02-03T00:50:23.003Z,3.70
2023-02-03T00:52:49.627Z,1.90
2023-02-03T00:55:16.313Z,1.50
2023-02-03T00:57:43.018Z,3.10
2023-02-03T01:00:11.802Z,3.30
2023-02-03T01:02:38.526Z,5.50
2023-02-03T01:05:05.920Z,2.90
2023-02-03T01:07:33.403Z,2.80
2023-02-03T01:10:00.179Z,1.30
2023-02-03T01:12:29.784Z,2.80
2023-02-03T01:14:56.396Z,2.00
2023-02-03T01:17:23.151Z,2.90
2023-02-03T01:19:52.852Z,2.60
2023-02-03T01:22:19.555Z,2.90
2023-02-03T01:24:46.206Z,1.70
2023-02-03T01:27:13.223Z,1.70
2023-02-03T01:29:39.860Z,1.60
2023-02-03T01:32:06.628Z,4.60
2023-02-03T01:34:35.069Z,4.40
2023-02-03T01:37:01.749Z,3.30
2023-02-03T01:39:28.366Z,2.10
2023-02-03T01:41:55.589Z,2.00
2023-02-03T01:44:45.590Z,3.10
2023-02-03T01:47:21.609Z,3.20
2023-02-03T01:49:52.706Z,4.60
2023-02-03T01:52:19.309Z,4.30
2023-02-03T01:54:46.130Z,3.90
2023-02-03T01:57:17.629Z,2.70
2023-02-03T01:59:44.293Z,4.00
2023-02-03T02:02:10.920Z,4.10
2023-02-03T02:04:48.290Z,3.80
2023-02-03T02:07:14.868Z,4.80
2023-02-03T02:09:41.497Z,5.60
2023-02-03T02:12:10.803Z,2.90
2023-02-03T02:14:38.104Z,6.40
2023-02-03T02:17:19.933Z,2.70
2023-02-03T02:20:16.144Z,6.40
2023-02-03T02:23:02.568Z,3.90
2023-02-03T02:25:38.329Z,5.30
2023-02-03T02:28:23.057Z,2.20
2023-02-03T02:31:30.660Z,4.00
2023-02-03T02:33:59.034Z,3.00
2023-02-03T02:37:15.141Z,3.80
2023-02-03T02:39:47.127Z,6.40
2023-02-03T02:42:24.737Z,12.00
2023-02-03T02:44:53.247Z,6.60
2023-02-03T02:47:20.959Z,5.60
2023-02-03T02:50:10.022Z,6.50
2023-02-03T02:52:38.867Z,4.90
2023-02-03T02:55:09.983Z,5.40
2023-02-03T02:57:37.152Z,3.90
2023-02-03T03:00:05.678Z,5.20
2023-02-03T03:02:34.026Z,3.90
2023-02-03T03:05:03.026Z,5.80
2023-02-03T03:07:29.796Z,5.70
2023-02-03T03:10:05.202Z,4.90
2023-02-03T03:12:34.765Z,8.10
2023-02-03T03:15:13.299Z,4.90
2023-02-03T03:17:51.180Z,5.90
2023-02-03T03:20:21.613Z,7.50
2023-02-03T03:22:51.024Z,8.20
2023-02-03T03:25:19.197Z,10.80
2023-02-03T03:27:50.577Z,8.30
2023-02-03T03:30:20.841Z,4.30
2023-02-03T03:32:47.455Z,8.20
2023-02-03T03:35:14.037Z,7.10
2023-02-03T03:37:45.601Z,5.40
2023-02-03T03:40:17.356Z,8.30
2023-02-03T03:42:47.179Z,6.10
2023-02-03T03:45:24.070Z,6.50
2023-02-03T03:47:54.722Z,5.10
2023-02-03T03:50:24.873Z,5.50
2023-02-03T03:52:51.591Z,8.10
2023-02-03T03:55:18.549Z,7.00
2023-02-03T03:57:51.987Z,5.60
2023-02-03T04:00:19.762Z,7.60
2023-02-03T04:02:49.059Z,10.70
2023-02-03T04:05:15.854Z,5.90
2023-02-03T04:07:44.296Z,9.10
2023-02-03T04:10:26.382Z,8.60
2023-02-03T04:12:53.180Z,8.00
2023-02-03T04:15:19.741Z,7.20
2023-02-03T04:17:46.356Z,10.40
2023-02-03T04:20:13.140Z,10.10
2023-02-03T04:22:39.777Z,8.00
2023-02-03T04:25:06.533Z,5.70
2023-02-03T04:27:34.969Z,6.30
2023-02-03T04:30:01.574Z,8.40
2023-02-03T04:32:28.326Z,7.90
2023-02-03T04:34:54.949Z,5.50
2023-02-03T04:37:23.193Z,8.10
2023-02-03T04:39:52.203Z,8.90
2023-02-03T04:42:19.065Z,11.20
2023-02-03T04:44:45.687Z,10.50
2023-02-03T04:47:12.328Z,7.50
2023-02-03T04:49:38.970Z,5.50
2023-02-03T04:52:06.198Z,12.90
2023-02-03T04:54:32.847Z,12.10
2023-02-03T04:56:59.433Z,9.40
2023-02-03T04:59:26.037Z,11.40
2023-02-03T05:01:52.680Z,9.00
2023-02-03T05:04:19.543Z,10.30
2023-02-03T05:06:46.175Z,14.20
2023-02-03T05:09:12.781Z,12.30
2023-02-03T05:11:39.390Z,10.20
2023-02-03T05:14:06.092Z,16.40
2023-02-03T05:16:32.742Z,8.60
2023-02-03T05:18:59.332Z,7.80
2023-02-03T05:23:53.195Z,7.00
2023-02-03T05:26:19.823Z,9.60
2023-02-03T05:28:46.487Z,10.50
2023-02-03T05:31:13.255Z,8.30
2023-02-03T05:33:39.993Z,9.70
2023-02-03T05:36:06.977Z,10.40
2023-02-03T05:38:33.622Z,10.40
2023-02-03T05:41:18.744Z,10.90
2023-02-03T05:43:45.355Z,11.00
2023-02-03T05:46:12.031Z,14.20
2023-02-03T05:48:38.679Z,12.40
2023-02-03T05:51:05.466Z,13.20
2023-02-03T05:53:32.067Z,9.60
2023-02-03T05:55:58.827Z,13.40
2023-02-03T05:58:25.426Z,13.30
2023-02-03T06:00:52.104Z,12.10
2023-02-03T06:03:18.757Z,9.30
2023-02-03T06:05:45.386Z,12.60
2023-02-03T06:08:11.977Z,13.90
2023-02-03T06:10:38.610Z,10.30
2023-02-03T06:13:13.142Z,10.90
2023-02-03T06:15:40.039Z,10.50
2023-02-03T06:18:07.165Z,13.40
2023-02-03T06:23:00.471Z,12.90
2023-02-03T06:25:27.332Z,14.10
2023-02-03T06:27:54.015Z,7.60
2023-02-03T06:30:21.343Z,8.60
2023-02-03T06:32:48.279Z,9.60
2023-02-03T06:37:41.709Z,13.60
2023-02-03T06:40:09.551Z,11.80
2023-02-03T06:42:36.308Z,14.70
2023-02-03T06:45:02.993Z,15.40
2023-02-03T06:47:29.964Z,18.80
2023-02-03T06:49:56.594Z,13.30
2023-02-03T06:52:23.338Z,19.00
2023-02-03T06:54:50.007Z,16.10
2023-02-03T06:57:16.624Z,17.20
2023-02-03T06:59:43.995Z,12.40
2023-02-03T07:02:11.649Z,13.20
2023-02-03T07:04:39.208Z,16.60
2023-02-03T07:07:05.967Z,16.30
2023-02-03T07:09:32.540Z,15.60
2023-02-03T07:11:59.249Z,15.50
2023-02-03T07:14:25.905Z,15.40
2023-02-03T07:16:54.122Z,14.40
2023-02-03T07:19:20.830Z,19.40
2023-02-03T07:21:47.444Z,19.00
2023-02-03T07:24:14.135Z,19.50
2023-02-03T07:26:40.741Z,15.30
2023-02-03T07:29:07.410Z,18.80
2023-02-03T07:31:35.771Z,13.30
2023-02-03T07:34:02.918Z,11.40
2023-02-03T07:36:29.662Z,11.00
2023-02-03T07:38:56.342Z,8.00
2023-02-03T07:41:23.017Z,10.70
2023-02-03T07:43:49.679Z,6.00
2023-02-03T07:46:16.443Z,10.20
2023-02-03T07:48:43.110Z,9.90
2023-02-03T07:51:09.748Z,7.50
2023-02-03T07:53:36.349Z,9.40
2023-02-03T07:56:04.306Z,8.10
2023-02-03T07:58:31.267Z,8.00
2023-02-03T08:00:58.055Z,6.00
2023-02-03T08:03:24.823Z,6.60
2023-02-03T08:05:52.920Z,6.70
2023-02-03T08:08:19.540Z,8.90
2023-02-03T08:10:46.149Z,9.40
2023-02-03T08:13:12.743Z,6.70
2023-02-03T08:15:39.343Z,11.30
2023-02-03T08:18:06.573Z,7.50
2023-02-03T08:20:33.164Z,9.60
2023-02-03T08:22:59.738Z,10.80
2023-02-03T08:25:26.346Z,7.10
2023-02-03T08:27:53.367Z,10.30
2023-02-03T08:30:20.058Z,9.10
2023-02-03T08:32:55.639Z,7.90
2023-02-03T08:35:22.281Z,6.20
2023-02-03T08:37:48.899Z,7.70
2023-02-03T08:40:26.704Z,8.00
2023-02-03T08:42:53.626Z,6.30
2023-02-03T08:45:20.301Z,7.50
2023-02-03T08:47:46.991Z,9.90
2023-02-03T08:50:13.714Z,4.40
2023-02-03T08:52:40.401Z,8.30
2023-02-03T08:55:07.155Z,7.10
2023-02-03T08:57:34.945Z,9.00
2023-02-03T09:00:01.680Z,10.70
2023-02-03T09:02:28.353Z,7.10
2023-02-03T09:04:55.162Z,9.30
2023-02-03T09:07:21.890Z,9.50
2023-02-03T09:09:48.512Z,10.60
2023-02-03T09:12:16.423Z,8.30
2023-02-03T09:14:43.141Z,10.00
2023-02-03T09:17:09.821Z,8.70
2023-02-03T09:19:36.817Z,7.40
2023-02-03T09:22:03.980Z,12.60
2023-02-03T09:24:31.053Z,7.60
2023-02-03T09:26:57.739Z,7.00
2023-02-03T09:29:24.378Z,12.30
2023-02-03T09:31:54.191Z,12.50
2023-02-03T09:34:21.298Z,8.80
2023-02-03T09:36:48.127Z,4.60
2023-02-03T09:39:15.074Z,9.50
2023-02-03T09:41:44.498Z,7.30
2023-02-03T09:44:29.312Z,6.50
2023-02-03T09:46:59.380Z,8.50
2023-02-03T09:49:37.705Z,7.10
2023-02-03T09:52:15.237Z,7.40
2023-02-03T09:54:59.010Z,11.00
2023-02-03T09:57:27.356Z,11.20
2023-02-03T09:59:54.825Z,9.80
2023-02-03T10:02:55.584Z,12.20
2023-02-03T10:05:29.772Z,7.70
2023-02-03T10:08:23.672Z,8.70
2023-02-03T10:11:11.620Z,7.30
2023-02-03T10:13:56.002Z,14.50
2023-02-03T10:16:41.571Z,8.50
2023-02-03T10:19:11.688Z,7.40
2023-02-03T10:21:44.651Z,6.90
2023-02-03T10:24:15.376Z,6.60
2023-02-03T10:26:42.089Z,10.50
2023-02-03T10:29:19.394Z,7.20
2023-02-03T10:32:12.021Z,7.80
2023-02-03T10:34:38.869Z,7.30
2023-02-03T10:37:46.710Z,6.60
2023-02-03T10:40:14.721Z,9.10
2023-02-03T10:43:00.224Z,9.70
2023-02-03T10:45:27.261Z,6.30
2023-02-03T10:47:55.259Z,7.50
2023-02-03T10:50:24.451Z,7.10
2023-02-03T10:52:51.209Z,5.80
2023-02-03T10:55:24.025Z,3.20
2023-02-03T10:57:54.158Z,6.60
2023-02-03T11:00:24.613Z,6.30
2023-02-03T11:03:22.300Z,12.20
2023-02-03T11:06:07.674Z,5.80
2023-02-03T11:08:35.574Z,7.80
2023-02-03T11:11:07.074Z,9.60
2023-02-03T11:13:33.792Z,7.80
2023-02-03T11:16:05.842Z,6.90
2023-02-03T11:18:41.885Z,7.20
2023-02-03T11:21:32.497Z,3.20
2023-02-03T11:24:19.876Z,8.10
2023-02-03T11:26:50.382Z,7.10
2023-02-03T11:29:24.622Z,6.70
2023-02-03T11:31:52.476Z,6.80
2023-02-03T11:34:24.295Z,6.40
2023-02-03T11:36:51.175Z,7.50
2023-02-03T11:39:20.998Z,9.40
2023-02-03T11:41:48.101Z,8.80
2023-02-03T11:46:45.184Z,9.50
2023-02-03T11:49:20.580Z,6.60
2023-02-03T11:52:10.432Z,6.80
2023-02-03T11:54:53.630Z,5.30
2023-02-03T11:57:37.687Z,7.60
2023-02-03T12:00:09.967Z,5.00
2023-02-03T12:03:03.918Z,4.10
2023-02-03T12:05:37.500Z,7.60
2023-02-03T12:08:28.181Z,6.70
2023-02-03T12:11:09.863Z,4.40
2023-02-03T12:13:55.225Z,5.80
2023-02-03T12:16:33.579Z,5.80
2023-02-03T12:19:22.666Z,4.70
2023-02-03T12:22:31.113Z,8.00
2023-02-03T12:25:18.319Z,5.00
2023-02-03T12:28:33.751Z,6.50
2023-02-03T12:31:11.181Z,5.70
2023-02-03T12:33:41.607Z,8.80
2023-02-03T12:36:11.335Z,11.80
2023-02-03T12:38:52.301Z,5.60
2023-02-03T12:41:22.819Z,4.30
2023-02-03T12:43:52.620Z,9.40
2023-02-03T12:46:31.238Z,16.30
2023-02-03T12:49:04.326Z,7.90
2023-02-03T12:51:41.793Z,5.30
2023-02-03T12:54:33.128Z,5.90
2023-02-03T12:57:16.290Z,9.40
2023-02-03T12:59:43.025Z,8.30
2023-02-03T13:02:18.227Z,7.40
2023-02-03T13:04:50.528Z,5.60
2023-02-03T13:07:32.596Z,5.70
2023-02-03T13:10:01.737Z,12.20
2023-02-03T13:12:41.640Z,18.30
2023-02-03T13:15:19.103Z,14.20
2023-02-03T13:18:05.568Z,7.90
2023-02-03T13:20:36.115Z,10.30
2023-02-03T13:23:11.485Z,10.00
2023-02-03T13:25:57.259Z,11.30
2023-02-03T13:28:32.933Z,11.80
2023-02-03T13:31:36.817Z,6.70
2023-02-03T13:34:12.890Z,6.50
2023-02-03T13:36:52.309Z,12.00
2023-02-03T13:39:43.828Z,8.90
2023-02-03T13:42:16.535Z,9.30
2023-02-03T13:44:43.879Z,9.70
2023-02-03T13:47:19.303Z,14.60
2023-02-03T13:49:48.889Z,9.70
2023-02-03T13:52:57.164Z,6.20
2023-02-03T13:55:38.871Z,8.30
2023-02-03T13:58:07.772Z,9.20
2023-02-03T14:00:43.781Z,12.50
2023-02-03T14:03:40.000Z,12.20
2023-02-03T14:06:11.805Z,8.60
2023-02-03T14:08:38.478Z,12.20
2023-02-03T14:11:33.279Z,14.00
2023-02-03T14:14:09.694Z,8.70
2023-02-03T14:16:36.500Z,8.40
2023-02-03T14:19:03.403Z,6.90
2023-02-03T14:21:58.599Z,9.70
2023-02-03T14:24:30.978Z,8.60
2023-02-03T14:26:57.704Z,8.70
2023-02-03T14:29:30.121Z,10.30
2023-02-03T14:32:10.241Z,9.60
2023-02-03T14:34:38.907Z,12.50
2023-02-03T14:37:09.432Z,14.10
2023-02-03T14:40:09.907Z,10.50
2023-02-03T14:42:47.088Z,6.70
2023-02-03T14:45:36.750Z,7.70
2023-02-03T14:48:24.599Z,7.90
2023-02-03T14:50:54.382Z,6.10
2023-02-03T14:53:21.293Z,6.50
2023-02-03T14:55:50.815Z,7.00
2023-02-03T14:58:48.416Z,5.60
2023-02-03T15:01:47.328Z,6.80
2023-02-03T15:06:42.498Z,8.20
2023-02-03T15:09:28.582Z,7.70
2023-02-03T15:11:55.441Z,7.90
2023-02-03T15:14:26.696Z,8.50
2023-02-03T15:17:04.257Z,7.70
2023-02-03T15:19:35.054Z,7.20
2023-02-03T15:22:02.122Z,9.50
2023-02-03T15:24:35.007Z,11.10
2023-02-03T15:27:01.609Z,10.50
2023-02-03T15:29:30.575Z,9.00
2023-02-03T15:32:04.319Z,7.50
2023-02-03T15:34:45.397Z,7.80
2023-02-03T15:37:19.977Z,9.00
2023-02-03T15:40:04.575Z,9.70
2023-02-03T15:42:35.881Z,10.50
2023-02-03T15:45:18.326Z,11.80
2023-02-03T15:48:05.935Z,10.50
2023-02-03T15:50:41.831Z,18.80
2023-02-03T15:53:46.834Z,23.70
2023-02-03T15:56:36.423Z,55.50
2023-02-03T15:59:03.394Z,29.90
2023-02-03T16:01:30.675Z,23.90
2023-02-03T16:03:57.435Z,24.60
2023-02-03T16:06:27.882Z,20.50
2023-02-03T16:08:54.965Z,19.50
2023-02-03T16:11:30.579Z,5.70
2023-02-03T16:13:59.789Z,5.40
2023-02-03T16:16:51.983Z,22.30
2023-02-03T16:19:25.536Z,18.30
2023-02-03T16:21:54.376Z,10.50
2023-02-03T16:24:42.603Z,13.70
2023-02-03T16:27:27.695Z,11.50
2023-02-03T16:30:28.555Z,16.80
2023-02-03T16:33:24.358Z,8.60
2023-02-03T16:36:09.895Z,14.40
2023-02-03T16:38:55.101Z,23.20
2023-02-03T16:41:40.330Z,18.60
2023-02-03T16:44:29.556Z,17.10
2023-02-03T16:47:14.690Z,24.70
2023-02-03T16:50:00.150Z,16.60
2023-02-03T16:52:26.877Z,11.20
2023-02-03T16:54:53.483Z,26.70
2023-02-03T16:57:20.118Z,19.10
2023-02-03T16:59:46.681Z,10.80
2023-02-03T17:02:13.349Z,10.40
2023-02-03T17:04:40.171Z,21.70
2023-02-03T17:07:06.888Z,12.70
2023-02-03T17:09:36.632Z,20.20
2023-02-03T17:12:03.438Z,25.60
2023-02-03T17:14:32.932Z,7.00
2023-02-03T17:16:59.555Z,21.90
2023-02-03T17:19:26.248Z,24.00
2023-02-03T17:21:53.569Z,12.80
2023-02-03T17:24:20.384Z,7.40
2023-02-03T17:26:47.173Z,27.40
2023-02-03T17:29:13.888Z,11.70
2023-02-03T17:31:40.693Z,19.70
2023-02-03T17:34:07.310Z,21.40
2023-02-03T17:36:33.948Z,20.10
2023-02-03T17:55:32.442Z,17.00
2023-02-03T17:57:59.869Z,2.40
2023-02-03T18:00:26.748Z,14.50
2023-02-03T18:02:53.409Z,16.00
2023-02-03T18:05:21.138Z,23.50
2023-02-03T18:10:15.717Z,7.40
2023-02-03T18:12:42.706Z,18.80
2023-02-03T18:15:09.550Z,23.20
2023-02-03T18:17:36.221Z,12.80
2023-02-03T18:20:04.123Z,10.30
2023-02-03T18:22:30.813Z,13.50
2023-02-03T18:24:57.419Z,16.60
2023-02-03T18:27:24.291Z,21.10
2023-02-03T18:29:50.883Z,7.40
2023-02-03T18:32:17.567Z,9.20
2023-02-03T18:34:44.237Z,18.40
2023-02-03T18:37:11.603Z,14.10
2023-02-03T18:39:38.262Z,18.40
2023-02-03T18:42:07.368Z,15.40
2023-02-03T18:44:34.121Z,18.00
2023-02-03T18:47:07.049Z,17.30
2023-02-03T18:49:37.748Z,6.80
2023-02-03T18:52:04.808Z,19.80
2023-02-03T18:57:02.753Z,15.20
2023-02-03T18:59:29.503Z,18.60
2023-02-03T19:01:56.538Z,18.00
2023-02-03T19:04:23.254Z,13.80
2023-02-03T19:06:51.498Z,21.90
2023-02-03T19:09:19.397Z,7.10
2023-02-03T19:11:46.125Z,20.10
2023-02-03T19:14:13.556Z,12.20
2023-02-03T19:16:40.392Z,16.40
2023-02-03T19:19:07.134Z,20.70
2023-02-03T19:21:33.766Z,7.80
2023-02-03T19:24:00.396Z,14.80
2023-02-03T19:26:27.984Z,9.50
2023-02-03T19:28:55.939Z,10.30
2023-02-03T19:31:22.700Z,19.30
2023-02-03T19:33:49.607Z,17.80
2023-02-03T19:36:16.248Z,17.50
2023-02-03T19:38:42.872Z,13.90
2023-02-03T19:41:09.837Z,17.20
2023-02-03T19:43:36.605Z,18.10
2023-02-03T19:46:03.521Z,18.70
2023-02-03T19:48:30.241Z,16.60
2023-02-03T19:50:57.053Z,11.00
2023-02-03T19:53:24.453Z,13.60
2023-02-03T19:55:51.710Z,9.20
2023-02-03T20:00:44.953Z,10.60
2023-02-03T20:03:11.576Z,12.70
2023-02-03T20:05:38.359Z,23.20
2023-02-03T20:08:05.183Z,20.30
2023-02-03T20:10:33.059Z,12.40
2023-02-03T20:13:00.473Z,17.50
2023-02-03T20:15:29.297Z,13.80
2023-02-03T20:17:56.015Z,17.40
2023-02-03T20:20:22.649Z,11.60
2023-02-03T20:22:49.448Z,17.10
2023-02-03T20:25:16.416Z,12.10
2023-02-03T20:27:43.175Z,17.70
2023-02-03T20:30:11.583Z,17.80
2023-02-03T20:32:41.032Z,8.10
2023-02-03T20:35:08.720Z,16.80
2023-02-03T20:37:38.202Z,15.50
2023-02-03T20:40:13.598Z,17.30
2023-02-03T20:42:41.149Z,6.60
2023-02-03T20:45:13.991Z,8.40
2023-02-03T20:47:41.185Z,16.40
2023-02-03T20:50:31.695Z,9.40
2023-02-03T20:53:01.123Z,16.40
2023-02-03T20:55:27.807Z,14.50
2023-02-03T20:57:56.941Z,16.70
2023-02-03T21:00:25.379Z,14.70
2023-02-03T21:03:11.504Z,15.30
2023-02-03T21:05:40.665Z,6.50
2023-02-03T21:08:14.588Z,12.60
2023-02-03T21:10:41.683Z,13.00
2023-02-03T21:16:03.733Z,11.40
2023-02-03T21:19:05.796Z,12.20
2023-02-03T21:21:38.264Z,5.40
2023-02-03T21:24:23.191Z,11.80
2023-02-03T21:26:49.947Z,10.90
2023-02-03T21:29:36.994Z,9.20
2023-02-03T21:32:04.422Z,4.80
2023-02-03T21:34:32.756Z,7.70
2023-02-03T21:37:39.330Z,2.90
2023-02-03T21:40:21.341Z,7.80
2023-02-03T21:42:48.187Z,8.40
2023-02-03T21:45:15.093Z,7.70
2023-02-03T21:48:33.337Z,7.90
2023-02-03T21:51:03.702Z,6.90
2023-02-03T21:53:52.657Z,6.60
2023-02-03T21:59:17.151Z,5.70
2023-02-03T22:02:31.100Z,3.50
2023-02-03T22:04:58.061Z,4.90
2023-02-03T22:07:25.191Z,7.60
2023-02-03T22:12:18.639Z,6.00
2023-02-03T22:17:36.390Z,5.50
2023-02-03T22:20:03.278Z,5.20
2023-02-03T22:22:53.707Z,3.90
2023-02-03T22:26:35.350Z,5.80
2023-02-03T22:29:03.489Z,6.40
2023-02-03T22:31:31.414Z,3.50
2023-02-03T22:39:38.570Z,6.10
2023-02-03T22:42:07.439Z,7.50
2023-02-03T22:44:34.071Z,5.40
2023-02-03T22:47:01.761Z,6.00
2023-02-03T22:49:28.439Z,4.20
2023-02-03T22:51:55.217Z,6.50
2023-02-03T22:54:21.822Z,4.00
2023-02-03T22:56:48.438Z,4.60
2023-02-03T22:59:15.216Z,5.00
2023-02-03T23:01:42.901Z,5.50
2023-02-03T23:04:11.249Z,3.00
2023-02-03T23:06:40.592Z,3.90
2023-02-03T23:09:07.692Z,4.70
2023-02-03T23:11:34.415Z,6.90
2023-02-03T23:14:02.285Z,6.00
2023-02-03T23:16:28.959Z,4.60
2023-02-03T23:18:55.723Z,4.00
2023-02-03T23:21:22.425Z,2.70
2023-02-03T23:23:49.064Z,5.10
2023-02-03T23:26:16.117Z,3.80
2023-02-03T23:28:42.840Z,3.50
2023-02-03T23:34:34.428Z,5.80
2023-02-03T23:37:01.587Z,3.20
2023-02-03T23:41:58.408Z,4.50
2023-02-03T23:44:25.330Z,3.70
2023-02-03T23:46:52.026Z,5.30
2023-02-03T23:49:19.323Z,3.20
2023-02-03T23:51:45.966Z,4.20
2023-02-03T23:54:13.611Z,7.70
2023-02-03T23:56:44.097Z,5.20
2023-02-03T23:59:10.831Z,5.20
